McIntyre, Louisiana
Current Conditions -  °F | °C
As of 7:36 PM on Sunday 23 Nov 2014 (Local Time) from KMNE Reporting Station
Clear Clear  
Wind Chill: 18°   Ceiling: Unl
Heat Index: 18°   Visibility: 10mi
Dew Point: 13°   Wind: 7mph
Humidity: 73%   Direction: 180°S
Pressure: 29.52"   Gusts: NA
Location:  32.7093°N, 93.3068°W
Report Text: KMNE 240136Z AUTO 18006KT 10SM CLR 18/13 A2952 RMK AO2
Loading
Personal Weather Stations






























Interactive Weather Map New forecast layout! Learn more

10-Day Weather Forecast

Advertisements
Track Severe Weather on mobile